sensor_id;sensor_type;location;lat;lon;timestamp;pressure;altitude;pressure_sealevel;temperature;humidity
45941;BME280;31858;46.008;8.978;2023-07-31T00:07:00;94377.88;;;21.05;100.00
45941;BME280;31858;46.008;8.978;2023-07-31T00:17:06;94394.31;;;20.89;100.00
45941;BME280;31858;46.008;8.978;2023-07-31T00:27:07;94395.38;;;20.69;100.00
45941;BME280;31858;46.008;8.978;2023-07-31T00:37:10;94393.13;;;20.68;100.00
45941;BME280;31858;46.008;8.978;2023-07-31T00:47:12;94375.94;;;20.62;100.00
45941;BME280;31858;46.008;8.978;2023-07-31T00:57:15;94377.75;;;20.65;100.00
45941;BME280;31858;46.008;8.978;2023-07-31T01:07:20;94382.50;;;20.73;100.00
45941;BME280;31858;46.008;8.978;2023-07-31T01:17:25;94393.63;;;20.75;100.00
45941;BME280;31858;46.008;8.978;2023-07-31T01:27:30;94388.47;;;20.68;100.00
45941;BME280;31858;46.008;8.978;2023-07-31T01:37:32;94386.56;;;20.56;100.00
45941;BME280;31858;46.008;8.978;2023-07-31T01:47:35;94383.34;;;20.48;100.00
45941;BME280;31858;46.008;8.978;2023-07-31T01:57:37;94389.94;;;20.47;100.00
45941;BME280;31858;46.008;8.978;2023-07-31T02:07:40;94388.75;;;20.36;100.00
45941;BME280;31858;46.008;8.978;2023-07-31T02:17:41;94385.09;;;20.30;100.00
45941;BME280;31858;46.008;8.978;2023-07-31T02:27:44;94383.19;;;20.17;100.00
45941;BME280;31858;46.008;8.978;2023-07-31T02:37:46;94363.28;;;20.11;100.00
45941;BME280;31858;46.008;8.978;2023-07-31T02:47:49;94370.44;;;20.05;100.00
45941;BME280;31858;46.008;8.978;2023-07-31T02:57:50;94370.00;;;19.94;100.00
45941;BME280;31858;46.008;8.978;2023-07-31T03:07:54;94374.44;;;20.01;100.00
45941;BME280;31858;46.008;8.978;2023-07-31T03:17:55;94373.44;;;20.07;100.00
45941;BME280;31858;46.008;8.978;2023-07-31T03:27:58;94379.88;;;19.75;100.00
45941;BME280;31858;46.008;8.978;2023-07-31T03:38:00;94389.06;;;19.91;100.00
45941;BME280;31858;46.008;8.978;2023-07-31T03:48:04;94382.91;;;19.77;100.00
45941;BME280;31858;46.008;8.978;2023-07-31T03:58:05;94386.69;;;19.93;100.00
45941;BME280;31858;46.008;8.978;2023-07-31T04:08:08;94403.13;;;19.73;100.00
45941;BME280;31858;46.008;8.978;2023-07-31T04:18:10;94403.44;;;19.87;100.00
45941;BME280;31858;46.008;8.978;2023-07-31T04:28:13;94403.66;;;19.93;100.00
45941;BME280;31858;46.008;8.978;2023-07-31T04:38:14;94416.97;;;19.75;100.00
45941;BME280;31858;46.008;8.978;2023-07-31T04:48:17;94419.88;;;19.93;100.00
45941;BME280;31858;46.008;8.978;2023-07-31T04:58:19;94418.25;;;19.70;100.00
45941;BME280;31858;46.008;8.978;2023-07-31T05:08:22;94424.84;;;19.69;100.00
45941;BME280;31858;46.008;8.978;2023-07-31T05:18:23;94430.38;;;19.78;100.00
45941;BME280;31858;46.008;8.978;2023-07-31T05:28:26;94439.34;;;19.63;100.00
45941;BME280;31858;46.008;8.978;2023-07-31T05:38:28;94433.63;;;19.86;100.00
45941;BME280;31858;46.008;8.978;2023-07-31T05:48:31;94444.84;;;19.72;100.00
45941;BME280;31858;46.008;8.978;2023-07-31T05:58:34;94445.41;;;19.79;100.00
45941;BME280;31858;46.008;8.978;2023-07-31T06:08:37;94446.91;;;19.93;100.00
45941;BME280;31858;46.008;8.978;2023-07-31T06:18:38;94467.38;;;19.94;100.00
45941;BME280;31858;46.008;8.978;2023-07-31T06:28:41;94469.63;;;19.96;100.00
45941;BME280;31858;46.008;8.978;2023-07-31T06:38:43;94476.44;;;20.00;100.00
45941;BME280;31858;46.008;8.978;2023-07-31T06:48:46;94464.66;;;20.07;100.00
45941;BME280;31858;46.008;8.978;2023-07-31T06:58:48;94462.06;;;20.16;100.00
45941;BME280;31858;46.008;8.978;2023-07-31T07:08:50;94457.72;;;20.18;100.00
45941;BME280;31858;46.008;8.978;2023-07-31T07:18:52;94463.47;;;20.20;100.00
45941;BME280;31858;46.008;8.978;2023-07-31T07:28:55;94483.25;;;19.92;100.00
45941;BME280;31858;46.008;8.978;2023-07-31T07:38:58;94472.66;;;19.85;100.00
45941;BME280;31858;46.008;8.978;2023-07-31T07:49:00;94470.50;;;19.93;100.00
45941;BME280;31858;46.008;8.978;2023-07-31T07:59:02;94460.44;;;19.93;100.00
45941;BME280;31858;46.008;8.978;2023-07-31T08:09:05;94443.56;;;19.89;100.00
45941;BME280;31858;46.008;8.978;2023-07-31T08:19:08;94443.25;;;20.00;100.00
45941;BME280;31858;46.008;8.978;2023-07-31T08:29:11;94439.00;;;20.11;100.00
45941;BME280;31858;46.008;8.978;2023-07-31T08:39:13;94443.19;;;20.50;100.00
45941;BME280;31858;46.008;8.978;2023-07-31T08:49:17;94457.97;;;20.71;100.00
45941;BME280;31858;46.008;8.978;2023-07-31T08:59:22;94449.41;;;20.73;100.00
45941;BME280;31858;46.008;8.978;2023-07-31T09:09:25;94441.47;;;21.00;100.00
45941;BME280;31858;46.008;8.978;2023-07-31T09:19:28;94439.97;;;21.21;100.00
45941;BME280;31858;46.008;8.978;2023-07-31T09:29:31;94435.56;;;21.14;100.00
45941;BME280;31858;46.008;8.978;2023-07-31T09:39:45;94429.22;;;21.30;100.00
45941;BME280;31858;46.008;8.978;2023-07-31T09:49:48;94433.88;;;21.52;100.00
45941;BME280;31858;46.008;8.978;2023-07-31T09:59:52;94436.22;;;21.71;100.00
45941;BME280;31858;46.008;8.978;2023-07-31T10:09:56;94432.84;;;21.89;100.00
45941;BME280;31858;46.008;8.978;2023-07-31T10:19:59;94413.63;;;22.05;100.00
45941;BME280;31858;46.008;8.978;2023-07-31T10:30:06;94412.78;;;22.36;100.00
45941;BME280;31858;46.008;8.978;2023-07-31T10:40:10;94412.66;;;22.49;100.00
45941;BME280;31858;46.008;8.978;2023-07-31T10:50:19;94407.09;;;22.70;100.00
45941;BME280;31858;46.008;8.978;2023-07-31T11:00:23;94404.41;;;22.98;100.00
45941;BME280;31858;46.008;8.978;2023-07-31T11:10:27;94388.81;;;23.17;100.00
45941;BME280;31858;46.008;8.978;2023-07-31T11:20:29;94374.38;;;23.43;100.00
45941;BME280;31858;46.008;8.978;2023-07-31T11:30:32;94375.56;;;23.52;100.00
45941;BME280;31858;46.008;8.978;2023-07-31T11:40:41;94374.91;;;23.75;100.00
45941;BME280;31858;46.008;8.978;2023-07-31T11:50:44;94357.50;;;23.82;100.00
45941;BME280;31858;46.008;8.978;2023-07-31T12:00:47;94334.25;;;24.04;100.00
45941;BME280;31858;46.008;8.978;2023-07-31T12:10:51;94322.34;;;24.26;100.00
45941;BME280;31858;46.008;8.978;2023-07-31T12:20:55;94311.91;;;24.24;100.00
45941;BME280;31858;46.008;8.978;2023-07-31T12:30:59;94315.56;;;24.45;100.00
45941;BME280;31858;46.008;8.978;2023-07-31T12:41:01;94301.03;;;24.63;100.00
45941;BME280;31858;46.008;8.978;2023-07-31T12:51:04;94292.84;;;24.92;100.00
45941;BME280;31858;46.008;8.978;2023-07-31T13:01:06;94282.41;;;24.91;100.00
45941;BME280;31858;46.008;8.978;2023-07-31T13:11:09;94256.88;;;25.18;100.00
45941;BME280;31858;46.008;8.978;2023-07-31T13:21:11;94260.50;;;25.44;100.00
45941;BME280;31858;46.008;8.978;2023-07-31T13:31:14;94251.63;;;25.49;100.00
45941;BME280;31858;46.008;8.978;2023-07-31T13:41:16;94243.66;;;25.46;100.00
45941;BME280;31858;46.008;8.978;2023-07-31T13:51:19;94246.78;;;25.74;100.00
45941;BME280;31858;46.008;8.978;2023-07-31T14:01:20;94227.44;;;25.92;100.00
45941;BME280;31858;46.008;8.978;2023-07-31T14:11:23;94233.69;;;25.78;100.00
45941;BME280;31858;46.008;8.978;2023-07-31T14:21:25;94222.53;;;25.61;100.00
45941;BME280;31858;46.008;8.978;2023-07-31T14:31:28;94206.44;;;25.63;100.00
45941;BME280;31858;46.008;8.978;2023-07-31T14:41:29;94212.16;;;25.80;100.00
45941;BME280;31858;46.008;8.978;2023-07-31T14:51:32;94220.22;;;26.15;100.00
45941;BME280;31858;46.008;8.978;2023-07-31T15:01:34;94209.31;;;26.35;100.00
45941;BME280;31858;46.008;8.978;2023-07-31T15:11:37;94202.19;;;26.43;100.00
45941;BME280;31858;46.008;8.978;2023-07-31T15:21:38;94182.69;;;26.56;100.00
45941;BME280;31858;46.008;8.978;2023-07-31T15:31:41;94177.44;;;26.52;100.00
45941;BME280;31858;46.008;8.978;2023-07-31T15:41:43;94168.75;;;26.54;100.00
45941;BME280;31858;46.008;8.978;2023-07-31T15:51:46;94152.38;;;26.54;100.00
45941;BME280;31858;46.008;8.978;2023-07-31T16:01:48;94144.53;;;26.67;100.00
45941;BME280;31858;46.008;8.978;2023-07-31T16:11:50;94143.94;;;26.89;100.00
45941;BME280;31858;46.008;8.978;2023-07-31T16:21:52;94142.22;;;26.91;100.00
45941;BME280;31858;46.008;8.978;2023-07-31T16:31:55;94143.56;;;26.70;100.00
45941;BME280;31858;46.008;8.978;2023-07-31T16:41:57;94142.56;;;26.42;100.00
45941;BME280;31858;46.008;8.978;2023-07-31T16:52:01;94135.72;;;26.52;100.00
45941;BME280;31858;46.008;8.978;2023-07-31T17:02:03;94138.75;;;26.59;100.00
45941;BME280;31858;46.008;8.978;2023-07-31T17:12:07;94133.41;;;26.45;100.00
45941;BME280;31858;46.008;8.978;2023-07-31T17:22:08;94138.22;;;26.29;100.00
45941;BME280;31858;46.008;8.978;2023-07-31T17:32:11;94150.84;;;26.27;100.00
45941;BME280;31858;46.008;8.978;2023-07-31T17:42:13;94141.66;;;25.98;100.00
45941;BME280;31858;46.008;8.978;2023-07-31T17:52:15;94151.50;;;25.70;100.00
45941;BME280;31858;46.008;8.978;2023-07-31T18:02:17;94160.34;;;25.45;100.00
45941;BME280;31858;46.008;8.978;2023-07-31T18:12:20;94164.22;;;25.38;100.00
45941;BME280;31858;46.008;8.978;2023-07-31T18:22:22;94177.84;;;25.03;100.00
45941;BME280;31858;46.008;8.978;2023-07-31T18:32:25;94186.34;;;24.61;100.00
45941;BME280;31858;46.008;8.978;2023-07-31T18:42:27;94201.63;;;24.29;100.00
45941;BME280;31858;46.008;8.978;2023-07-31T18:52:30;94196.31;;;24.11;100.00
45941;BME280;31858;46.008;8.978;2023-07-31T19:02:32;94191.09;;;23.83;100.00
45941;BME280;31858;46.008;8.978;2023-07-31T19:12:35;94183.81;;;23.65;100.00
45941;BME280;31858;46.008;8.978;2023-07-31T19:22:36;94180.41;;;23.56;100.00
45941;BME280;31858;46.008;8.978;2023-07-31T19:32:39;94179.69;;;23.22;100.00
45941;BME280;31858;46.008;8.978;2023-07-31T19:42:41;94193.31;;;23.13;100.00
45941;BME280;31858;46.008;8.978;2023-07-31T19:52:44;94187.13;;;23.13;100.00
45941;BME280;31858;46.008;8.978;2023-07-31T20:02:46;94182.09;;;23.20;100.00
45941;BME280;31858;46.008;8.978;2023-07-31T20:12:49;94156.91;;;23.20;100.00
45941;BME280;31858;46.008;8.978;2023-07-31T20:22:51;94160.38;;;23.20;100.00
45941;BME280;31858;46.008;8.978;2023-07-31T20:32:54;94168.59;;;23.02;100.00
45941;BME280;31858;46.008;8.978;2023-07-31T20:42:57;94153.41;;;22.95;100.00
45941;BME280;31858;46.008;8.978;2023-07-31T20:53:00;94164.63;;;22.79;100.00
45941;BME280;31858;46.008;8.978;2023-07-31T21:03:02;94161.75;;;22.73;100.00
45941;BME280;31858;46.008;8.978;2023-07-31T21:13:05;94156.91;;;22.77;100.00
45941;BME280;31858;46.008;8.978;2023-07-31T21:23:07;94148.63;;;22.81;100.00
45941;BME280;31858;46.008;8.978;2023-07-31T21:33:10;94125.78;;;22.97;100.00
45941;BME280;31858;46.008;8.978;2023-07-31T21:43:11;94112.56;;;22.71;100.00
45941;BME280;31858;46.008;8.978;2023-07-31T21:53:14;94106.69;;;22.82;100.00
45941;BME280;31858;46.008;8.978;2023-07-31T22:03:16;94110.81;;;22.59;100.00
45941;BME280;31858;46.008;8.978;2023-07-31T22:13:19;94099.91;;;22.68;100.00
45941;BME280;31858;46.008;8.978;2023-07-31T22:23:21;94081.94;;;22.80;100.00
45941;BME280;31858;46.008;8.978;2023-07-31T22:33:24;94076.75;;;22.49;100.00
45941;BME280;31858;46.008;8.978;2023-07-31T22:43:25;94060.56;;;22.64;100.00
45941;BME280;31858;46.008;8.978;2023-07-31T22:53:28;94055.13;;;22.31;100.00
45941;BME280;31858;46.008;8.978;2023-07-31T23:03:33;94042.47;;;22.28;100.00
45941;BME280;31858;46.008;8.978;2023-07-31T23:13:36;94003.25;;;22.29;100.00
45941;BME280;31858;46.008;8.978;2023-07-31T23:23:39;93998.59;;;22.29;100.00
45941;BME280;31858;46.008;8.978;2023-07-31T23:33:42;94037.47;;;22.35;100.00
45941;BME280;31858;46.008;8.978;2023-07-31T23:43:44;94054.53;;;22.27;100.00
45941;BME280;31858;46.008;8.978;2023-07-31T23:53:47;94053.31;;;21.49;100.00
